sensor_id;sensor_type;location;lat;lon;timestamp;temperature;humidity
30473;DHT22;17263;48.160;11.452;2022-12-18T00:02:09;-3.30;99.90
30473;DHT22;17263;48.160;11.452;2022-12-18T00:04:35;-3.30;99.90
30473;DHT22;17263;48.160;11.452;2022-12-18T00:07:01;-3.30;99.90
30473;DHT22;17263;48.160;11.452;2022-12-18T00:09:28;-3.30;99.90
30473;DHT22;17263;48.160;11.452;2022-12-18T00:11:55;-3.40;99.90
30473;DHT22;17263;48.160;11.452;2022-12-18T00:14:21;-3.50;99.90
30473;DHT22;17263;48.160;11.452;2022-12-18T00:16:47;-3.50;99.90
30473;DHT22;17263;48.160;11.452;2022-12-18T00:19:14;-3.50;99.90
30473;DHT22;17263;48.160;11.452;2022-12-18T00:21:41;-3.50;99.90
30473;DHT22;17263;48.160;11.452;2022-12-18T00:24:08;-3.50;99.90
30473;DHT22;17263;48.160;11.452;2022-12-18T00:26:36;-3.50;99.90
30473;DHT22;17263;48.160;11.452;2022-12-18T00:29:07;-3.50;99.90
30473;DHT22;17263;48.160;11.452;2022-12-18T00:31:34;-3.50;99.90
30473;DHT22;17263;48.160;11.452;2022-12-18T00:34:00;-3.50;99.90
30473;DHT22;17263;48.160;11.452;2022-12-18T00:36:33;-3.50;99.90
30473;DHT22;17263;48.160;11.452;2022-12-18T00:39:01;-3.60;99.90
30473;DHT22;17263;48.160;11.452;2022-12-18T00:41:28;-3.60;99.90
30473;DHT22;17263;48.160;11.452;2022-12-18T00:44:14;-3.60;99.90
30473;DHT22;17263;48.160;11.452;2022-12-18T00:46:41;-3.60;99.90
30473;DHT22;17263;48.160;11.452;2022-12-18T00:49:08;-3.60;99.90
30473;DHT22;17263;48.160;11.452;2022-12-18T00:51:34;-3.60;99.90
30473;DHT22;17263;48.160;11.452;2022-12-18T00:54:00;-3.60;99.90
30473;DHT22;17263;48.160;11.452;2022-12-18T00:56:27;-3.60;99.90
30473;DHT22;17263;48.160;11.452;2022-12-18T00:58:53;-3.70;99.90
30473;DHT22;17263;48.160;11.452;2022-12-18T01:01:19;-3.70;99.90
30473;DHT22;17263;48.160;11.452;2022-12-18T01:03:45;-3.70;99.90
30473;DHT22;17263;48.160;11.452;2022-12-18T01:06:14;-3.80;99.90
30473;DHT22;17263;48.160;11.452;2022-12-18T01:08:40;-3.80;99.90
30473;DHT22;17263;48.160;11.452;2022-12-18T01:11:14;-3.80;99.90
30473;DHT22;17263;48.160;11.452;2022-12-18T01:13:40;-3.90;99.90
30473;DHT22;17263;48.160;11.452;2022-12-18T01:16:07;-3.90;99.90
30473;DHT22;17263;48.160;11.452;2022-12-18T01:18:33;-3.90;99.90
30473;DHT22;17263;48.160;11.452;2022-12-18T01:20:59;-3.90;99.90
30473;DHT22;17263;48.160;11.452;2022-12-18T01:23:25;-3.90;99.90
30473;DHT22;17263;48.160;11.452;2022-12-18T01:25:51;-4.00;99.90
30473;DHT22;17263;48.160;11.452;2022-12-18T01:28:17;-3.90;99.90
30473;DHT22;17263;48.160;11.452;2022-12-18T01:30:43;-4.00;99.90
30473;DHT22;17263;48.160;11.452;2022-12-18T01:33:09;-4.00;99.90
30473;DHT22;17263;48.160;11.452;2022-12-18T01:35:41;-4.00;99.90
30473;DHT22;17263;48.160;11.452;2022-12-18T01:38:07;-4.00;99.90
30473;DHT22;17263;48.160;11.452;2022-12-18T01:40:33;-4.00;99.90
30473;DHT22;17263;48.160;11.452;2022-12-18T01:42:59;-4.00;99.90
30473;DHT22;17263;48.160;11.452;2022-12-18T01:45:31;-4.00;99.90
30473;DHT22;17263;48.160;11.452;2022-12-18T01:48:15;-4.00;99.90
30473;DHT22;17263;48.160;11.452;2022-12-18T01:50:42;-4.00;99.90
30473;DHT22;17263;48.160;11.452;2022-12-18T01:53:15;-4.00;99.90
30473;DHT22;17263;48.160;11.452;2022-12-18T01:55:47;-4.00;99.90
30473;DHT22;17263;48.160;11.452;2022-12-18T01:58:14;-4.00;99.90
30473;DHT22;17263;48.160;11.452;2022-12-18T02:00:41;-4.00;99.90
30473;DHT22;17263;48.160;11.452;2022-12-18T02:03:07;-4.00;99.90
30473;DHT22;17263;48.160;11.452;2022-12-18T02:05:42;-4.00;99.90
30473;DHT22;17263;48.160;11.452;2022-12-18T02:08:21;-4.00;99.90
30473;DHT22;17263;48.160;11.452;2022-12-18T02:27:45;-3.90;99.90
30473;DHT22;17263;48.160;11.452;2022-12-18T02:30:12;-3.90;99.90
30473;DHT22;17263;48.160;11.452;2022-12-18T02:32:43;-3.90;99.90
30473;DHT22;17263;48.160;11.452;2022-12-18T02:35:15;-3.90;99.90
30473;DHT22;17263;48.160;11.452;2022-12-18T02:37:43;-3.90;99.90
30473;DHT22;17263;48.160;11.452;2022-12-18T02:40:11;-3.90;99.90
30473;DHT22;17263;48.160;11.452;2022-12-18T02:42:38;-4.00;99.90
30473;DHT22;17263;48.160;11.452;2022-12-18T02:45:05;-4.00;99.90
30473;DHT22;17263;48.160;11.452;2022-12-18T02:47:33;-4.00;99.90
30473;DHT22;17263;48.160;11.452;2022-12-18T02:55:37;-4.00;99.90
30473;DHT22;17263;48.160;11.452;2022-12-18T02:58:56;-4.00;99.90
30473;DHT22;17263;48.160;11.452;2022-12-18T03:01:34;-4.00;99.90
30473;DHT22;17263;48.160;11.452;2022-12-18T03:04:09;-4.00;99.90
30473;DHT22;17263;48.160;11.452;2022-12-18T03:06:45;-4.00;99.90
30473;DHT22;17263;48.160;11.452;2022-12-18T03:09:17;-4.00;99.90
30473;DHT22;17263;48.160;11.452;2022-12-18T03:11:49;-4.00;99.90
30473;DHT22;17263;48.160;11.452;2022-12-18T03:14:38;-4.00;99.90
30473;DHT22;17263;48.160;11.452;2022-12-18T03:17:07;-3.90;99.90
30473;DHT22;17263;48.160;11.452;2022-12-18T03:19:40;-3.90;99.90
30473;DHT22;17263;48.160;11.452;2022-12-18T03:22:07;-3.90;99.90
30473;DHT22;17263;48.160;11.452;2022-12-18T03:24:36;-3.90;99.90
30473;DHT22;17263;48.160;11.452;2022-12-18T03:27:07;-3.90;99.90
30473;DHT22;17263;48.160;11.452;2022-12-18T03:29:38;-3.90;99.90
30473;DHT22;17263;48.160;11.452;2022-12-18T03:32:10;-4.00;99.90
30473;DHT22;17263;48.160;11.452;2022-12-18T03:34:39;-4.00;99.90
30473;DHT22;17263;48.160;11.452;2022-12-18T03:37:06;-3.90;99.90
30473;DHT22;17263;48.160;11.452;2022-12-18T03:39:33;-4.00;99.90
30473;DHT22;17263;48.160;11.452;2022-12-18T03:42:07;-4.00;99.90
30473;DHT22;17263;48.160;11.452;2022-12-18T03:44:43;-4.00;99.90
30473;DHT22;17263;48.160;11.452;2022-12-18T03:47:16;-4.00;99.90
30473;DHT22;17263;48.160;11.452;2022-12-18T03:50:39;-4.00;99.90
30473;DHT22;17263;48.160;11.452;2022-12-18T03:52:58;-4.00;99.90
30473;DHT22;17263;48.160;11.452;2022-12-18T03:55:27;-3.90;99.90
30473;DHT22;17263;48.160;11.452;2022-12-18T03:57:55;-3.90;99.90
30473;DHT22;17263;48.160;11.452;2022-12-18T04:00:22;-3.90;99.90
30473;DHT22;17263;48.160;11.452;2022-12-18T04:02:51;-3.90;99.90
30473;DHT22;17263;48.160;11.452;2022-12-18T04:05:22;-3.90;99.90
30473;DHT22;17263;48.160;11.452;2022-12-18T04:07:50;-3.90;99.90
30473;DHT22;17263;48.160;11.452;2022-12-18T04:10:17;-3.90;99.90
30473;DHT22;17263;48.160;11.452;2022-12-18T04:12:43;-3.90;99.90
30473;DHT22;17263;48.160;11.452;2022-12-18T04:15:11;-3.90;99.90
30473;DHT22;17263;48.160;11.452;2022-12-18T04:17:38;-3.90;99.90
30473;DHT22;17263;48.160;11.452;2022-12-18T04:20:05;-3.90;99.90
30473;DHT22;17263;48.160;11.452;2022-12-18T04:22:31;-3.90;99.90
30473;DHT22;17263;48.160;11.452;2022-12-18T04:24:57;-3.90;99.90
30473;DHT22;17263;48.160;11.452;2022-12-18T04:27:23;-3.80;99.90
30473;DHT22;17263;48.160;11.452;2022-12-18T04:29:49;-3.80;99.90
30473;DHT22;17263;48.160;11.452;2022-12-18T04:32:15;-3.90;99.90
30473;DHT22;17263;48.160;11.452;2022-12-18T04:34:41;-3.90;99.90
30473;DHT22;17263;48.160;11.452;2022-12-18T04:37:07;-3.90;99.90
30473;DHT22;17263;48.160;11.452;2022-12-18T04:39:33;-3.90;99.90
30473;DHT22;17263;48.160;11.452;2022-12-18T04:41:59;-3.90;99.90
30473;DHT22;17263;48.160;11.452;2022-12-18T04:44:25;-3.90;99.90
30473;DHT22;17263;48.160;11.452;2022-12-18T04:46:51;-3.80;99.90
30473;DHT22;17263;48.160;11.452;2022-12-18T04:49:18;-3.80;99.90
30473;DHT22;17263;48.160;11.452;2022-12-18T04:51:44;-3.80;99.90
30473;DHT22;17263;48.160;11.452;2022-12-18T04:54:10;-3.90;99.90
30473;DHT22;17263;48.160;11.452;2022-12-18T04:56:36;-3.80;99.90
30473;DHT22;17263;48.160;11.452;2022-12-18T04:59:02;-3.80;99.90
30473;DHT22;17263;48.160;11.452;2022-12-18T05:01:28;-3.90;99.90
30473;DHT22;17263;48.160;11.452;2022-12-18T05:03:54;-3.80;99.90
30473;DHT22;17263;48.160;11.452;2022-12-18T05:06:20;-3.90;99.90
30473;DHT22;17263;48.160;11.452;2022-12-18T05:08:46;-3.90;99.90
30473;DHT22;17263;48.160;11.452;2022-12-18T05:11:14;-3.80;99.90
30473;DHT22;17263;48.160;11.452;2022-12-18T05:13:43;-3.80;99.90
30473;DHT22;17263;48.160;11.452;2022-12-18T05:16:10;-3.80;99.90
30473;DHT22;17263;48.160;11.452;2022-12-18T05:18:36;-3.90;99.90
30473;DHT22;17263;48.160;11.452;2022-12-18T05:21:03;-3.80;99.90
30473;DHT22;17263;48.160;11.452;2022-12-18T05:23:29;-3.80;99.90
30473;DHT22;17263;48.160;11.452;2022-12-18T05:25:58;-3.80;99.90
30473;DHT22;17263;48.160;11.452;2022-12-18T05:28:26;-3.80;99.90
30473;DHT22;17263;48.160;11.452;2022-12-18T05:30:54;-3.80;99.90
30473;DHT22;17263;48.160;11.452;2022-12-18T05:33:22;-3.80;99.90
30473;DHT22;17263;48.160;11.452;2022-12-18T05:35:56;-3.80;99.90
30473;DHT22;17263;48.160;11.452;2022-12-18T05:38:24;-3.70;99.90
30473;DHT22;17263;48.160;11.452;2022-12-18T05:40:51;-3.80;99.90
30473;DHT22;17263;48.160;11.452;2022-12-18T05:43:18;-3.80;99.90
30473;DHT22;17263;48.160;11.452;2022-12-18T05:45:45;-3.80;99.90
30473;DHT22;17263;48.160;11.452;2022-12-18T05:48:11;-3.80;99.90
30473;DHT22;17263;48.160;11.452;2022-12-18T05:50:38;-3.80;99.90
30473;DHT22;17263;48.160;11.452;2022-12-18T05:53:05;-3.80;99.90
30473;DHT22;17263;48.160;11.452;2022-12-18T05:55:39;-3.80;99.90
30473;DHT22;17263;48.160;11.452;2022-12-18T05:58:07;-3.80;99.90
30473;DHT22;17263;48.160;11.452;2022-12-18T06:00:34;-3.80;99.90
30473;DHT22;17263;48.160;11.452;2022-12-18T06:03:01;-3.80;99.90
30473;DHT22;17263;48.160;11.452;2022-12-18T06:05:28;-3.80;99.90
30473;DHT22;17263;48.160;11.452;2022-12-18T06:07:54;-3.80;99.90
30473;DHT22;17263;48.160;11.452;2022-12-18T06:10:20;-3.80;99.90
30473;DHT22;17263;48.160;11.452;2022-12-18T06:12:46;-3.80;99.90
30473;DHT22;17263;48.160;11.452;2022-12-18T06:15:12;-3.80;99.90
30473;DHT22;17263;48.160;11.452;2022-12-18T06:17:38;-3.70;99.90
30473;DHT22;17263;48.160;11.452;2022-12-18T06:20:04;-3.80;99.90
30473;DHT22;17263;48.160;11.452;2022-12-18T06:22:32;-3.70;99.90
30473;DHT22;17263;48.160;11.452;2022-12-18T06:24:58;-3.80;99.90
30473;DHT22;17263;48.160;11.452;2022-12-18T06:27:25;-3.70;99.90
30473;DHT22;17263;48.160;11.452;2022-12-18T06:29:51;-3.70;99.90
30473;DHT22;17263;48.160;11.452;2022-12-18T06:32:17;-3.80;99.90
30473;DHT22;17263;48.160;11.452;2022-12-18T06:34:43;-3.80;99.90
30473;DHT22;17263;48.160;11.452;2022-12-18T06:37:09;-3.80;99.90
30473;DHT22;17263;48.160;11.452;2022-12-18T06:39:35;-3.80;99.90
30473;DHT22;17263;48.160;11.452;2022-12-18T06:42:01;-3.80;99.90
30473;DHT22;17263;48.160;11.452;2022-12-18T06:44:27;-3.90;99.90
30473;DHT22;17263;48.160;11.452;2022-12-18T06:46:53;-3.80;99.90
30473;DHT22;17263;48.160;11.452;2022-12-18T06:49:19;-3.80;99.90
30473;DHT22;17263;48.160;11.452;2022-12-18T06:51:45;-3.80;99.90
30473;DHT22;17263;48.160;11.452;2022-12-18T06:54:11;-3.80;99.90
30473;DHT22;17263;48.160;11.452;2022-12-18T06:56:38;-3.80;99.90
30473;DHT22;17263;48.160;11.452;2022-12-18T06:59:04;-3.80;99.90
30473;DHT22;17263;48.160;11.452;2022-12-18T07:01:30;-3.80;99.90
30473;DHT22;17263;48.160;11.452;2022-12-18T07:03:57;-3.80;99.90
30473;DHT22;17263;48.160;11.452;2022-12-18T07:06:25;-3.80;99.90
30473;DHT22;17263;48.160;11.452;2022-12-18T07:08:52;-3.80;99.90
30473;DHT22;17263;48.160;11.452;2022-12-18T07:11:18;-3.90;99.90
30473;DHT22;17263;48.160;11.452;2022-12-18T07:13:45;-3.80;99.90
30473;DHT22;17263;48.160;11.452;2022-12-18T07:16:14;-3.80;99.90
30473;DHT22;17263;48.160;11.452;2022-12-18T07:18:40;-3.80;99.90
30473;DHT22;17263;48.160;11.452;2022-12-18T07:21:09;-3.80;99.90
30473;DHT22;17263;48.160;11.452;2022-12-18T07:23:35;-3.80;99.90
30473;DHT22;17263;48.160;11.452;2022-12-18T07:26:06;-3.80;99.90
30473;DHT22;17263;48.160;11.452;2022-12-18T07:28:34;-3.80;99.90
30473;DHT22;17263;48.160;11.452;2022-12-18T07:31:04;-3.90;99.90
30473;DHT22;17263;48.160;11.452;2022-12-18T07:33:32;-3.80;99.90
30473;DHT22;17263;48.160;11.452;2022-12-18T07:36:05;-3.80;99.90
30473;DHT22;17263;48.160;11.452;2022-12-18T07:38:32;-3.90;99.90
30473;DHT22;17263;48.160;11.452;2022-12-18T07:41:09;-3.90;99.90
30473;DHT22;17263;48.160;11.452;2022-12-18T07:43:35;-3.90;99.90
30473;DHT22;17263;48.160;11.452;2022-12-18T07:46:02;-3.90;99.90
30473;DHT22;17263;48.160;11.452;2022-12-18T07:48:29;-3.90;99.90
30473;DHT22;17263;48.160;11.452;2022-12-18T07:50:59;-3.90;99.90
30473;DHT22;17263;48.160;11.452;2022-12-18T07:53:26;-3.90;99.90
30473;DHT22;17263;48.160;11.452;2022-12-18T07:55:59;-3.90;99.90
30473;DHT22;17263;48.160;11.452;2022-12-18T07:58:26;-3.90;99.90
30473;DHT22;17263;48.160;11.452;2022-12-18T08:00:52;-3.90;99.90
30473;DHT22;17263;48.160;11.452;2022-12-18T08:03:19;-3.90;99.90
30473;DHT22;17263;48.160;11.452;2022-12-18T08:05:45;-3.90;99.90
30473;DHT22;17263;48.160;11.452;2022-12-18T08:08:11;-3.90;99.90
30473;DHT22;17263;48.160;11.452;2022-12-18T08:10:37;-3.90;99.90
30473;DHT22;17263;48.160;11.452;2022-12-18T08:13:04;-3.90;99.90
30473;DHT22;17263;48.160;11.452;2022-12-18T08:15:30;-3.90;99.90
30473;DHT22;17263;48.160;11.452;2022-12-18T08:17:56;-3.90;99.90
30473;DHT22;17263;48.160;11.452;2022-12-18T08:20:22;-3.90;99.90
30473;DHT22;17263;48.160;11.452;2022-12-18T08:22:48;-3.80;99.90
30473;DHT22;17263;48.160;11.452;2022-12-18T08:25:15;-3.80;99.90
30473;DHT22;17263;48.160;11.452;2022-12-18T08:27:41;-3.80;99.90
30473;DHT22;17263;48.160;11.452;2022-12-18T08:30:07;-3.80;99.90
30473;DHT22;17263;48.160;11.452;2022-12-18T08:32:34;-3.90;99.90
30473;DHT22;17263;48.160;11.452;2022-12-18T08:35:00;-3.90;99.90
30473;DHT22;17263;48.160;11.452;2022-12-18T08:37:26;-3.80;99.90
30473;DHT22;17263;48.160;11.452;2022-12-18T08:39:52;-3.80;99.90
30473;DHT22;17263;48.160;11.452;2022-12-18T08:42:18;-3.70;99.90
30473;DHT22;17263;48.160;11.452;2022-12-18T08:45:03;-3.60;99.90
30473;DHT22;17263;48.160;11.452;2022-12-18T08:47:29;-3.60;99.90
30473;DHT22;17263;48.160;11.452;2022-12-18T08:49:55;-3.50;99.90
30473;DHT22;17263;48.160;11.452;2022-12-18T08:52:21;-3.50;99.90
30473;DHT22;17263;48.160;11.452;2022-12-18T08:54:47;-3.50;99.90
30473;DHT22;17263;48.160;11.452;2022-12-18T08:57:13;-3.50;99.90
30473;DHT22;17263;48.160;11.452;2022-12-18T08:59:39;-3.50;99.90
30473;DHT22;17263;48.160;11.452;2022-12-18T09:02:05;-3.40;99.90
30473;DHT22;17263;48.160;11.452;2022-12-18T09:04:31;-3.40;99.90
30473;DHT22;17263;48.160;11.452;2022-12-18T09:06:57;-3.40;99.90
30473;DHT22;17263;48.160;11.452;2022-12-18T09:09:23;-3.40;99.90
30473;DHT22;17263;48.160;11.452;2022-12-18T09:11:49;-3.50;99.90
30473;DHT22;17263;48.160;11.452;2022-12-18T09:14:15;-3.50;99.90
30473;DHT22;17263;48.160;11.452;2022-12-18T09:16:41;-3.50;99.90
30473;DHT22;17263;48.160;11.452;2022-12-18T09:19:08;-3.50;99.90
30473;DHT22;17263;48.160;11.452;2022-12-18T09:21:36;-3.50;99.90
30473;DHT22;17263;48.160;11.452;2022-12-18T09:24:04;-3.50;99.90
30473;DHT22;17263;48.160;11.452;2022-12-18T09:26:30;-3.50;99.90
30473;DHT22;17263;48.160;11.452;2022-12-18T09:28:56;-3.50;99.90
30473;DHT22;17263;48.160;11.452;2022-12-18T09:31:23;-3.50;99.90
30473;DHT22;17263;48.160;11.452;2022-12-18T09:33:50;-3.40;99.90
30473;DHT22;17263;48.160;11.452;2022-12-18T09:36:17;-3.40;99.90
30473;DHT22;17263;48.160;11.452;2022-12-18T09:38:44;-3.40;99.90
30473;DHT22;17263;48.160;11.452;2022-12-18T09:41:39;-3.40;99.90
30473;DHT22;17263;48.160;11.452;2022-12-18T09:44:29;-3.50;99.90
30473;DHT22;17263;48.160;11.452;2022-12-18T09:47:18;-3.40;99.90
30473;DHT22;17263;48.160;11.452;2022-12-18T09:49:50;-3.40;99.90
30473;DHT22;17263;48.160;11.452;2022-12-18T09:52:33;-3.30;99.90
30473;DHT22;17263;48.160;11.452;2022-12-18T09:55:10;-3.20;99.90
30473;DHT22;17263;48.160;11.452;2022-12-18T09:57:42;-3.20;99.90
30473;DHT22;17263;48.160;11.452;2022-12-18T10:02:39;-3.20;99.90
30473;DHT22;17263;48.160;11.452;2022-12-18T10:05:13;-3.20;99.90
30473;DHT22;17263;48.160;11.452;2022-12-18T10:07:55;-3.20;99.90
30473;DHT22;17263;48.160;11.452;2022-12-18T10:10:27;-3.20;99.90
30473;DHT22;17263;48.160;11.452;2022-12-18T10:13:18;-3.20;99.90
30473;DHT22;17263;48.160;11.452;2022-12-18T10:18:56;-3.20;99.90
30473;DHT22;17263;48.160;11.452;2022-12-18T10:21:51;-3.30;99.90
30473;DHT22;17263;48.160;11.452;2022-12-18T10:27:14;-3.40;99.90
30473;DHT22;17263;48.160;11.452;2022-12-18T10:29:42;-3.30;99.90
30473;DHT22;17263;48.160;11.452;2022-12-18T10:32:21;-3.30;99.90
30473;DHT22;17263;48.160;11.452;2022-12-18T10:34:49;-3.40;99.90
30473;DHT22;17263;48.160;11.452;2022-12-18T10:37:20;-3.40;99.90
30473;DHT22;17263;48.160;11.452;2022-12-18T10:40:08;-3.40;99.90
30473;DHT22;17263;48.160;11.452;2022-12-18T10:42:35;-3.30;99.90
30473;DHT22;17263;48.160;11.452;2022-12-18T10:45:18;-3.20;99.90
30473;DHT22;17263;48.160;11.452;2022-12-18T10:47:48;-3.10;99.90
30473;DHT22;17263;48.160;11.452;2022-12-18T10:50:31;-3.10;99.90
30473;DHT22;17263;48.160;11.452;2022-12-18T10:53:03;-3.10;99.90
30473;DHT22;17263;48.160;11.452;2022-12-18T10:55:35;-3.00;99.90
30473;DHT22;17263;48.160;11.452;2022-12-18T11:01:17;-2.90;99.90
30473;DHT22;17263;48.160;11.452;2022-12-18T11:06:23;-2.90;99.90
30473;DHT22;17263;48.160;11.452;2022-12-18T11:09:05;-2.90;99.90
30473;DHT22;17263;48.160;11.452;2022-12-18T11:11:32;-2.90;99.90
30473;DHT22;17263;48.160;11.452;2022-12-18T11:14:03;-2.90;99.90
30473;DHT22;17263;48.160;11.452;2022-12-18T11:16:34;-2.90;99.90
30473;DHT22;17263;48.160;11.452;2022-12-18T11:19:34;-2.90;99.90
30473;DHT22;17263;48.160;11.452;2022-12-18T11:22:17;-2.90;99.90
30473;DHT22;17263;48.160;11.452;2022-12-18T11:24:52;-2.90;99.90
30473;DHT22;17263;48.160;11.452;2022-12-18T11:27:19;-2.90;99.90
30473;DHT22;17263;48.160;11.452;2022-12-18T11:29:45;-2.90;99.90
30473;DHT22;17263;48.160;11.452;2022-12-18T11:32:33;-2.90;99.90
30473;DHT22;17263;48.160;11.452;2022-12-18T11:35:42;-2.90;99.90
30473;DHT22;17263;48.160;11.452;2022-12-18T11:41:26;-2.80;99.90
30473;DHT22;17263;48.160;11.452;2022-12-18T11:44:18;-2.70;99.90
30473;DHT22;17263;48.160;11.452;2022-12-18T11:46:51;-2.80;99.90
30473;DHT22;17263;48.160;11.452;2022-12-18T11:49:33;-2.70;99.90
30473;DHT22;17263;48.160;11.452;2022-12-18T11:52:15;-2.80;99.90
30473;DHT22;17263;48.160;11.452;2022-12-18T11:54:42;-2.70;99.90
30473;DHT22;17263;48.160;11.452;2022-12-18T12:05:26;-2.80;99.90
30473;DHT22;17263;48.160;11.452;2022-12-18T12:07:59;-2.90;99.90
30473;DHT22;17263;48.160;11.452;2022-12-18T12:13:22;-2.80;99.90
30473;DHT22;17263;48.160;11.452;2022-12-18T12:27:02;-2.80;99.90
30473;DHT22;17263;48.160;11.452;2022-12-18T12:35:48;-2.80;99.90
30473;DHT22;17263;48.160;11.452;2022-12-18T12:41:06;-2.80;99.90
30473;DHT22;17263;48.160;11.452;2022-12-18T12:44:04;-2.80;99.90
30473;DHT22;17263;48.160;11.452;2022-12-18T12:46:41;-2.90;99.90
30473;DHT22;17263;48.160;11.452;2022-12-18T12:49:20;-2.80;99.90
30473;DHT22;17263;48.160;11.452;2022-12-18T12:51:52;-2.90;99.90
30473;DHT22;17263;48.160;11.452;2022-12-18T12:54:23;-3.00;99.90
30473;DHT22;17263;48.160;11.452;2022-12-18T12:57:02;-2.90;99.90
30473;DHT22;17263;48.160;11.452;2022-12-18T13:05:43;-2.90;99.90
30473;DHT22;17263;48.160;11.452;2022-12-18T13:08:23;-3.00;99.90
30473;DHT22;17263;48.160;11.452;2022-12-18T13:10:50;-2.90;99.90
30473;DHT22;17263;48.160;11.452;2022-12-18T13:13:54;-2.90;99.90
30473;DHT22;17263;48.160;11.452;2022-12-18T13:16:24;-2.90;99.90
30473;DHT22;17263;48.160;11.452;2022-12-18T13:18:55;-2.80;99.90
30473;DHT22;17263;48.160;11.452;2022-12-18T13:21:28;-2.70;99.90
30473;DHT22;17263;48.160;11.452;2022-12-18T13:23:55;-2.80;99.90
30473;DHT22;17263;48.160;11.452;2022-12-18T13:26:29;-2.90;99.90
30473;DHT22;17263;48.160;11.452;2022-12-18T13:28:58;-2.90;99.90
30473;DHT22;17263;48.160;11.452;2022-12-18T13:36:42;-3.00;99.90
30473;DHT22;17263;48.160;11.452;2022-12-18T13:41:53;-3.00;99.90
30473;DHT22;17263;48.160;11.452;2022-12-18T13:44:32;-3.00;99.90
30473;DHT22;17263;48.160;11.452;2022-12-18T13:46:59;-3.00;99.90
30473;DHT22;17263;48.160;11.452;2022-12-18T13:49:39;-3.10;99.90
30473;DHT22;17263;48.160;11.452;2022-12-18T13:52:26;-3.10;99.90
30473;DHT22;17263;48.160;11.452;2022-12-18T13:54:55;-3.10;99.90
30473;DHT22;17263;48.160;11.452;2022-12-18T13:57:29;-3.10;99.90
30473;DHT22;17263;48.160;11.452;2022-12-18T13:59:56;-3.10;99.90
30473;DHT22;17263;48.160;11.452;2022-12-18T14:02:25;-3.20;99.90
30473;DHT22;17263;48.160;11.452;2022-12-18T14:04:52;-3.20;99.90
30473;DHT22;17263;48.160;11.452;2022-12-18T14:07:24;-3.20;99.90
30473;DHT22;17263;48.160;11.452;2022-12-18T14:10:00;-3.30;99.90
30473;DHT22;17263;48.160;11.452;2022-12-18T14:12:30;-3.30;99.90
30473;DHT22;17263;48.160;11.452;2022-12-18T14:17:53;-3.40;99.90
30473;DHT22;17263;48.160;11.452;2022-12-18T14:20:20;-3.40;99.90
30473;DHT22;17263;48.160;11.452;2022-12-18T14:22:48;-3.40;99.90
30473;DHT22;17263;48.160;11.452;2022-12-18T14:25:16;-3.50;99.90
30473;DHT22;17263;48.160;11.452;2022-12-18T14:27:50;-3.50;99.90
30473;DHT22;17263;48.160;11.452;2022-12-18T14:30:30;-3.50;99.90
30473;DHT22;17263;48.160;11.452;2022-12-18T14:33:17;-3.40;99.90
30473;DHT22;17263;48.160;11.452;2022-12-18T14:36:03;-3.30;99.90
30473;DHT22;17263;48.160;11.452;2022-12-18T14:38:39;-3.40;99.90
30473;DHT22;17263;48.160;11.452;2022-12-18T14:41:13;-3.40;99.90
30473;DHT22;17263;48.160;11.452;2022-12-18T14:43:41;-3.40;99.90
30473;DHT22;17263;48.160;11.452;2022-12-18T14:46:45;-3.40;99.90
30473;DHT22;17263;48.160;11.452;2022-12-18T14:49:24;-3.40;99.90
30473;DHT22;17263;48.160;11.452;2022-12-18T14:51:59;-3.50;99.90
30473;DHT22;17263;48.160;11.452;2022-12-18T14:54:26;-3.50;99.90
30473;DHT22;17263;48.160;11.452;2022-12-18T14:57:13;-3.50;99.90
30473;DHT22;17263;48.160;11.452;2022-12-18T14:59:41;-3.60;99.90
30473;DHT22;17263;48.160;11.452;2022-12-18T15:04:44;-3.60;99.90
30473;DHT22;17263;48.160;11.452;2022-12-18T15:07:21;-3.60;99.90
30473;DHT22;17263;48.160;11.452;2022-12-18T15:12:44;-3.60;99.90
30473;DHT22;17263;48.160;11.452;2022-12-18T15:18:12;-3.70;99.90
30473;DHT22;17263;48.160;11.452;2022-12-18T15:26:08;-3.80;99.90
30473;DHT22;17263;48.160;11.452;2022-12-18T15:29:17;-3.80;99.90
30473;DHT22;17263;48.160;11.452;2022-12-18T15:31:33;-3.80;99.90
30473;DHT22;17263;48.160;11.452;2022-12-18T15:34:09;-3.80;99.90
30473;DHT22;17263;48.160;11.452;2022-12-18T15:36:36;-3.80;99.90
30473;DHT22;17263;48.160;11.452;2022-12-18T15:39:02;-3.80;99.90
30473;DHT22;17263;48.160;11.452;2022-12-18T15:41:44;-3.80;99.90
30473;DHT22;17263;48.160;11.452;2022-12-18T15:44:30;-3.80;99.90
30473;DHT22;17263;48.160;11.452;2022-12-18T15:46:59;-3.80;99.90
30473;DHT22;17263;48.160;11.452;2022-12-18T15:49:25;-3.80;99.90
30473;DHT22;17263;48.160;11.452;2022-12-18T15:51:53;-3.80;99.90
30473;DHT22;17263;48.160;11.452;2022-12-18T15:54:20;-3.80;99.90
30473;DHT22;17263;48.160;11.452;2022-12-18T15:57:09;-3.80;99.90
30473;DHT22;17263;48.160;11.452;2022-12-18T15:59:52;-3.80;99.90
30473;DHT22;17263;48.160;11.452;2022-12-18T16:02:20;-3.80;99.90
30473;DHT22;17263;48.160;11.452;2022-12-18T16:04:49;-3.80;99.90
30473;DHT22;17263;48.160;11.452;2022-12-18T16:07:15;-3.80;99.90
30473;DHT22;17263;48.160;11.452;2022-12-18T16:09:42;-3.80;99.90
30473;DHT22;17263;48.160;11.452;2022-12-18T16:12:17;-3.80;99.90
30473;DHT22;17263;48.160;11.452;2022-12-18T16:14:44;-3.90;99.90
30473;DHT22;17263;48.160;11.452;2022-12-18T16:17:11;-3.90;99.90
30473;DHT22;17263;48.160;11.452;2022-12-18T16:19:38;-3.90;99.90
30473;DHT22;17263;48.160;11.452;2022-12-18T16:22:04;-3.80;99.90
30473;DHT22;17263;48.160;11.452;2022-12-18T16:24:33;-3.80;99.90
30473;DHT22;17263;48.160;11.452;2022-12-18T16:27:00;-3.90;99.90
30473;DHT22;17263;48.160;11.452;2022-12-18T16:29:27;-4.00;99.90
30473;DHT22;17263;48.160;11.452;2022-12-18T16:31:55;-4.00;99.90
30473;DHT22;17263;48.160;11.452;2022-12-18T16:34:23;-4.00;99.90
30473;DHT22;17263;48.160;11.452;2022-12-18T16:36:53;-4.00;99.90
30473;DHT22;17263;48.160;11.452;2022-12-18T16:39:20;-4.00;99.90
30473;DHT22;17263;48.160;11.452;2022-12-18T16:41:46;-4.00;99.90
30473;DHT22;17263;48.160;11.452;2022-12-18T16:44:13;-4.00;99.90
30473;DHT22;17263;48.160;11.452;2022-12-18T16:46:40;-4.00;99.90
30473;DHT22;17263;48.160;11.452;2022-12-18T16:49:09;-4.00;99.90
30473;DHT22;17263;48.160;11.452;2022-12-18T16:51:36;-4.00;99.90
30473;DHT22;17263;48.160;11.452;2022-12-18T16:54:05;-4.00;99.90
30473;DHT22;17263;48.160;11.452;2022-12-18T16:56:31;-4.00;99.90
30473;DHT22;17263;48.160;11.452;2022-12-18T16:58:59;-4.00;99.90
30473;DHT22;17263;48.160;11.452;2022-12-18T17:01:27;-4.00;99.90
30473;DHT22;17263;48.160;11.452;2022-12-18T17:04:01;-4.10;99.90
30473;DHT22;17263;48.160;11.452;2022-12-18T17:06:29;-4.10;99.90
30473;DHT22;17263;48.160;11.452;2022-12-18T17:09:03;-4.10;99.90
30473;DHT22;17263;48.160;11.452;2022-12-18T17:11:34;-4.00;99.90
30473;DHT22;17263;48.160;11.452;2022-12-18T17:14:12;-4.00;99.90
30473;DHT22;17263;48.160;11.452;2022-12-18T17:16:39;-4.00;99.90
30473;DHT22;17263;48.160;11.452;2022-12-18T17:19:05;-4.00;99.90